Latest Weather Observations for Richmond

IDN60801

Issued at 3:32 pm EST Friday 4 September 2015 (issued every 30 minutes, with the page automatically refreshed every 10 minutes)

About weather observations | Map of weather stations | Latest weather observations for NSW | Other Formats
Station Details ID: 067105 Name: RICHMOND RAAF Lat: -33.60 Lon: 150.78 Height: 19.0 m
Data from the previous 72 hours. | See also: Recent months at Richmond
Date/Time
EST
Temp
°C
App
Temp
°C
Dew
Point
Rel
Hum
%
Delta-T
°C
Wind Press
QNH
hPa
Press
MSL
hPa
Rain
since 9 am
mm
Dir
 
Spd
km/h
Gust
km/h
Spd
kts
Gust
kts
04/03:30pm 18.3 15.4 8.3 52 5.1 ESE 13 17 7 9 1020.2 1020.2 0.0
04/03:00pm 19.2 16.1 8.8 51 5.4 NE 15 20 8 11 1020.2 1020.2 0.0
04/02:30pm 19.1 17.3 8.1 49 5.7 SSE 7 20 4 11 1020.3 1020.3 0.0
04/02:00pm 18.4 16.3 8.1 51 5.3 SSW 9 17 5 9 1020.5 1020.5 0.0
04/01:30pm 18.2 15.1 8.7 54 4.9 SSE 15 20 8 11 1020.8 1020.8 0.0
04/01:00pm 18.1 15.3 8.7 54 4.9 S 13 17 7 9 1021.0 1021.0 0.0
04/12:30pm 17.9 15.5 8.5 54 4.8 S 11 17 6 9 1021.3 1021.3 0.0
04/12:00pm 18.9 15.9 9.4 54 5.0 S 15 22 8 12 1021.5 1021.5 0.0
04/11:30am 17.7 14.5 8.6 55 4.7 S 15 24 8 13 1021.8 1021.8 0.0
04/11:00am 17.6 13.6 9.0 57 4.4 S 20 30 11 16 1022.1 1022.1 0.0
04/10:30am 17.1 12.9 8.3 56 4.5 S 20 33 11 18 1022.3 1022.3 0.0
04/10:00am 17.0 12.9 8.7 58 4.3 S 20 28 11 15 1022.2 1022.2 0.0
04/09:30am 16.2 12.4 9.2 63 3.6 SSW 19 28 10 15 1022.2 1022.2 0.0
04/09:00am 15.8 12.4 9.2 65 3.4 S 17 22 9 12 1022.2 1022.2 0.0
04/08:30am 15.7 12.2 8.9 64 3.5 SSW 17 24 9 13 1021.7 1021.7 0.0
04/08:00am 15.4 11.6 9.1 66 3.2 SSW 19 28 10 15 1021.2 1021.2 0.0
04/07:30am 15.1 11.3 9.2 68 3.0 SSW 19 26 10 14 1021.0 1021.0 0.0
04/07:00am 14.7 11.3 9.3 70 2.8 SSW 17 24 9 13 1020.4 1020.4 0.0
04/06:30am 14.4 12.1 9.0 70 2.7 SSW 11 19 6 10 1019.9 1019.9 0.0
04/06:00am 14.5 11.8 8.9 69 2.8 SSW 13 17 7 9 1019.6 1019.6 0.0
04/05:30am 14.4 11.3 8.8 69 2.8 SSW 15 22 8 12 1019.0 1019.0 0.0
04/05:00am 14.7 11.6 8.9 68 2.9 SSW 15 20 8 11 1018.6 1018.6 0.0
04/04:30am 14.8 11.4 9.0 68 3.0 SSW 17 22 9 12 1018.2 1018.2 0.0
04/04:00am 14.6 11.0 8.5 67 3.1 SSW 17 24 9 13 1017.8 1017.8 0.0
04/03:30am 14.9 11.0 8.6 66 3.2 SSW 19 32 10 17 1017.3 1017.3 0.0
04/03:00am 15.0 11.1 8.7 66 3.2 SSW 19 28 10 15 1017.1 1017.1 0.0
04/02:30am 15.1 11.0 8.6 65 3.3 SSW 20 30 11 16 1016.9 1016.9 0.0
04/02:00am 14.9 10.9 8.2 64 3.4 SSW 19 28 10 15 1016.7 1016.7 0.0
04/01:30am 15.1 10.9 8.1 63 3.5 SSW 20 28 11 15 1016.5 1016.5 0.0
04/01:00am 15.1 10.9 8.1 63 3.5 SW 20 28 11 15 1015.9 1015.9 0.0
04/12:30am 14.6 10.8 7.6 63 3.5 SW 17 26 9 14 1016.0 1016.0 0.0
04/12:00am 15.1 10.7 7.6 61 3.7 SW 20 30 11 16 1015.4 1015.4 0.0
 
Date/Time
EST
Temp
°C
App
Temp
°C
Dew
Point
Rel
Hum
%
Delta-T
°C
Wind Press
QNH
hPa
Press
MSL
hPa
Rain
since 9 am
mm
Dir
 
Spd
km/h
Gust
km/h
Spd
kts
Gust
kts
03/11:30pm 15.6 10.4 7.4 58 4.1 SW 24 39 13 21 1014.8 1014.8 0.0
03/11:00pm 15.8 11.0 7.3 57 4.2 SSW 22 35 12 19 1014.5 1014.5 0.0
03/10:30pm 15.5 11.4 7.8 60 3.9 SSW 19 32 10 17 1014.4 1014.4 0.0
03/10:00pm 15.4 11.6 7.7 60 3.8 SSW 17 30 9 16 1014.2 1014.2 0.0
03/09:30pm 15.2 10.5 7.7 61 3.7 SW 22 35 12 19 1014.2 1014.2 0.0
03/09:00pm 15.4 10.9 6.9 57 4.2 SW 20 28 11 15 1014.0 1014.0 0.0
03/08:30pm 15.6 11.5 6.3 54 4.5 WSW 17 24 9 13 1013.2 1013.2 0.0
03/08:00pm 15.6 11.4 5.8 52 4.7 WSW 17 28 9 15 1012.6 1012.6 0.0
03/07:30pm 15.5 11.7 5.7 52 4.7 WSW 15 19 8 10 1011.8 1011.8 0.0
03/07:00pm 15.8 11.5 5.4 50 5.0 SW 17 24 9 13 1011.4 1011.4 0.0
03/06:30pm 16.1 11.8 5.4 49 5.1 SW 17 20 9 11 1010.9 1010.9 0.0
03/06:00pm 16.4 12.8 5.1 47 5.4 SW 13 17 7 9 1010.0 1010.0 0.0
03/05:30pm 17.0 13.4 5.0 45 5.7 SW 13 20 7 11 1009.1 1009.1 0.0
03/05:00pm 17.8 14.2 5.1 43 6.1 SW 13 17 7 9 1008.4 1008.4 0.0
03/04:30pm 18.5 13.6 3.9 38 6.9 SSW 19 28 10 15 1007.6 1007.6 0.0
03/04:00pm 19.4 13.1 3.6 35 7.5 WSW 26 39 14 21 1006.9 1006.9 0.0
03/03:30pm 20.0 12.7 4.5 36 7.5 W 32 39 17 21 1006.5 1006.5 0.0
03/03:00pm 20.1 14.9 5.7 39 7.1 W 22 33 12 18 1006.3 1006.3 0.0
03/02:30pm 19.7 12.8 4.6 37 7.3 WSW 30 41 16 22 1005.9 1005.9 0.0
03/02:06pm 19.7 13.3 5.4 39 7.0 WSW 28 46 15 25 1005.7 1005.7 0.0
03/02:00pm 19.6 12.4 4.9 38 7.2 W 32 46 17 25 1005.7 1005.7 0.0
03/01:30pm 19.6 13.3 5.6 40 6.9 WSW 28 39 15 21 1005.7 1005.7 0.0
03/01:00pm 19.3 14.7 5.4 40 6.8 WNW 19 33 10 18 1005.7 1005.7 0.0
03/12:30pm 18.0 13.7 7.1 49 5.5 NW 19 28 10 15 1006.1 1006.1 0.0
03/12:00pm 17.4 13.5 6.9 50 5.2 NW 17 22 9 12 1006.5 1006.5 0.0
03/11:30am 17.1 13.6 7.2 52 4.9 NW 15 19 8 10 1006.8 1006.8 0.0
03/11:00am 16.6 13.0 6.7 52 4.9 NW 15 20 8 11 1006.9 1006.9 0.0
03/10:30am 16.3 12.6 8.0 58 4.2 WNW 17 24 9 13 1006.8 1006.8 0.0
03/10:00am 16.0 12.5 8.7 62 3.7 WNW 17 24 9 13 1006.7 1006.7 0.0
03/09:30am 14.3 14.0 11.3 82 1.6 ESE 4 7 2 4 1006.4 1006.4 0.0
03/09:00am 12.8 12.0 11.2 90 0.8 NE 6 9 3 5 1006.3 1006.3 1.8
03/08:30am 12.0 11.5 10.6 91 0.7 NE 4 7 2 4 1006.2 1006.2 1.8
03/08:00am 10.9 9.9 10.4 97 0.3 NNW 6 7 3 4 1006.2 1006.2 1.8
03/07:37am 10.3 10.4 10.0 98 0.2 CALM 0 0 0 0 1005.9 1005.9 1.8
03/07:30am 9.6 9.5 9.3 98 0.1 CALM 0 0 0 0 1005.8 1005.8 1.8
03/07:12am 8.3 7.8 8.0 98 0.1 CALM 0 0 0 0 1005.7 1005.7 1.8
03/07:00am 7.6 6.2 7.3 98 0.1 N 4 7 2 4 1005.5 1005.5 1.8
03/06:30am 7.6 6.6 7.3 98 0.1 NNW 2 6 1 3 1005.1 1005.1 1.8
03/06:00am 7.6 6.2 7.3 98 0.1 NNW 4 9 2 5 1005.3 1005.3 1.8
03/05:30am 7.9 6.2 7.6 98 0.1 NE 6 9 3 5 1005.0 1005.0 1.8
03/05:03am 9.1 7.7 8.8 98 0.1 NE 6 7 3 4 1005.2 1005.2 1.8
03/05:00am 9.0 7.6 8.7 98 0.1 NE 6 7 3 4 1005.2 1005.2 1.8
03/04:49am 8.5 6.9 8.2 98 0.1 NW 6 9 3 5 1005.3 1005.3 1.8
03/04:47am 9.1 7.7 8.8 98 0.1 WNW 6 9 3 5 1005.2 1005.2 1.8
03/04:40am 9.6 8.3 9.3 98 0.1 WSW 6 7 3 4 1005.2 1005.2 1.8
03/04:30am 9.8 8.6 9.5 98 0.1 WSW 6 7 3 4 1005.1 1005.1 1.8
03/04:27am 9.9 8.7 9.6 98 0.1 WSW 6 7 3 4 1005.1 1005.1 1.8
03/04:00am 9.7 8.3 9.4 98 0.1 WNW 7 9 4 5 1005.6 1005.6 1.8
03/03:36am 10.0 9.6 9.7 98 0.2 N 2 7 1 4 1005.6 1005.6 1.8
03/03:30am 10.2 9.5 9.9 98 0.2 N 4 7 2 4 1005.7 1005.7 1.8
03/03:21am 10.2 10.2 9.9 98 0.2 CALM 0 0 0 0 1005.8 1005.8 1.8
03/03:01am 10.0 10.0 9.7 98 0.2 CALM 0 0 0 0 1006.5 1006.5 1.6
03/03:00am 9.9 9.8 9.6 98 0.2 CALM 0 0 0 0 1006.5 1006.5 1.6
03/02:30am 10.4 10.5 10.1 98 0.2 CALM 0 0 0 0 1006.5 1006.5 1.6
03/02:00am 10.9 9.7 10.4 97 0.3 SW 7 9 4 5 1007.2 1007.2 1.6
03/01:30am 11.4 11.6 10.6 95 0.4 CALM 0 6 0 3 1008.1 1008.1 1.6
03/01:00am 11.3 10.2 10.5 95 0.4 NW 7 11 4 6 1008.3 1008.3 1.6
03/12:30am 11.4 9.1 10.3 93 0.6 E 13 15 7 8 1008.2 1008.2 1.6
03/12:00am 11.4 9.7 10.0 91 0.7 N 9 13 5 7 1009.4 1009.4 1.2
 
Date/Time
EST
Temp
°C
App
Temp
°C
Dew
Point
Rel
Hum
%
Delta-T
°C
Wind Press
QNH
hPa
Press
MSL
hPa
Rain
since 9 am
mm
Dir
 
Spd
km/h
Gust
km/h
Spd
kts
Gust
kts
02/11:30pm 11.9 9.5 10.1 89 0.9 SSE 13 17 7 9 1008.4 1008.4 1.0
02/11:00pm 12.3 10.0 9.1 81 1.6 WSW 11 22 6 12 1009.5 1009.5 0.0
02/10:30pm 12.4 11.1 9.8 84 1.3 SW 7 9 4 5 1008.5 1008.5 0.0
02/10:00pm 12.1 11.9 8.9 81 1.6 CALM 0 0 0 0 1008.8 1008.8 0.0
02/09:30pm 12.1 10.6 9.1 82 1.5 NNE 7 9 4 5 1009.6 1009.6 0.0
02/09:00pm 13.2 11.9 9.3 77 2.0 SSE 6 6 3 3 1009.7 1009.7 0.0
02/08:30pm 14.0 13.8 9.0 72 2.5 CALM 0 0 0 0 1010.4 1010.4 0.0
02/08:00pm 14.3 13.8 7.8 65 3.2 CALM 0 0 0 0 1010.2 1010.2 0.0
02/07:30pm 15.6 14.9 6.9 56 4.3 CALM 0 0 0 0 1010.3 1010.3 0.0
02/07:00pm 15.5 13.6 6.5 55 4.4 ENE 6 7 3 4 1010.6 1010.6 0.0
02/06:30pm 16.3 14.2 6.7 53 4.7 ENE 7 11 4 6 1010.7 1010.7 0.0
02/06:00pm 16.2 13.2 6.1 51 4.9 ENE 11 13 6 7 1010.7 1010.7 0.0
02/05:30pm 17.0 13.7 6.2 49 5.3 NE 13 19 7 10 1010.8 1010.8 0.0
02/05:00pm 18.4 15.1 4.6 40 6.6 NE 11 15 6 8 1011.0 1011.0 0.0
02/04:30pm 19.7 16.0 4.2 36 7.4 NE 13 20 7 11 1010.8 1010.8 0.0
02/04:00pm 20.1 16.0 2.0 30 8.3 NE 13 17 7 9 1011.0 1011.0 0.0
02/03:30pm 20.1 15.1 1.5 29 8.5 NE 17 24 9 13 1011.2 1011.2 0.0
02/03:00pm 20.3 16.0 3.1 32 8.1 NE 15 24 8 13 1011.3 1011.3 0.0
02/02:30pm 19.6 16.0 6.7 43 6.5 NNE 15 22 8 12 1011.7 1011.7 0.0
02/02:00pm 19.1 16.4 7.5 47 5.9 NE 11 20 6 11 1012.5 1012.5 0.0
02/01:30pm 17.8 14.9 6.3 47 5.7 NE 11 17 6 9 1013.2 1013.2 0.0
02/01:00pm 16.9 14.3 6.1 49 5.3 NE 9 13 5 7 1014.0 1014.0 0.0
02/12:30pm 15.9 12.8 5.5 50 5.0 E 11 15 6 8 1014.6 1014.6 0.0
02/12:00pm 15.3 12.7 6.3 55 4.4 NE 9 13 5 7 1015.3 1015.3 0.0
02/11:30am 14.3 11.8 6.4 59 3.8 ENE 9 13 5 7 1016.1 1016.1 0.0
02/11:00am 13.2 10.9 5.9 61 3.4 SE 7 13 4 7 1016.7 1016.7 0.0
02/10:30am 11.8 9.8 6.3 69 2.6 NE 6 7 3 4 1017.3 1017.3 0.0
02/10:00am 10.3 8.7 6.5 77 1.8 SE 4 9 2 5 1017.6 1017.6 0.0
02/09:30am 9.5 8.6 6.2 80 1.5 CALM 0 0 0 0 1018.2 1018.2 0.0
02/09:00am 8.7 6.6 5.8 82 1.3 NNW 6 6 3 3 1018.4 1018.4 0.0
02/08:30am 8.8 7.2 6.2 84 1.2 E 4 7 2 4 1018.6 1018.6 0.0
02/08:00am 6.9 5.6 5.8 93 0.5 NE 2 6 1 3 1018.5 1018.5 0.0
02/07:30am 4.6 3.3 4.3 98 0.1 CALM 0 0 0 0 1018.2 1018.2 0.0
02/07:26am 4.4 3.1 4.1 98 0.1 CALM 0 0 0 0 1018.2 1018.2 0.0
02/07:25am 4.3 3.0 4.0 98 0.1 CALM 0 0 0 0 1018.2 1018.2 0.0
02/07:10am 3.2 1.7 2.9 98 0.1 CALM 0 0 0 0 1018.1 1018.1 0.0
02/07:00am 2.5 0.9 2.2 98 0.1 CALM 0 0 0 0 1018.1 1018.1 0.0
02/06:39am 1.9 0.2 1.6 98 0.1 CALM 0 6 0 3 1018.0 1018.0 0.0
02/06:36am 1.9 0.2 1.6 98 0.1 CALM 0 0 0 0 1018.1 1018.1 0.0
02/06:30am 1.9 0.2 1.6 98 0.1 CALM 0 0 0 0 1018.0 1018.0 0.0
02/06:18am 2.2 0.5 1.9 98 0.1 CALM 0 0 0 0 1017.7 1017.7 0.0
02/06:11am 2.2 0.5 1.9 98 0.1 CALM 0 0 0 0 1017.7 1017.7 0.0
02/06:09am 2.3 0.6 2.0 98 0.1 CALM 0 0 0 0 1017.7 1017.7 0.0
02/06:00am 2.2 0.5 1.9 98 0.1 CALM 0 0 0 0 1017.6 1017.6 0.0
02/05:36am 2.6 1.0 2.3 98 0.1 CALM 0 0 0 0 1017.6 1017.6 0.0
02/05:30am 2.8 1.2 2.5 98 0.1 CALM 0 0 0 0 1017.5 1017.5 0.0
02/05:25am 2.3 0.6 2.0 98 0.1 CALM 0 4 0 2 1017.5 1017.5 0.0
02/05:18am 2.5 0.9 2.2 98 0.1 CALM 0 4 0 2 1017.4 1017.4 0.0
02/05:00am 2.1 0.0 1.8 98 0.1 NNE 2 6 1 3 1017.3 1017.3 0.0
02/04:30am 2.3 -0.1 2.0 98 0.1 WNW 4 7 2 4 1016.9 1016.9 0.0
02/04:03am 3.3 1.0 3.0 98 0.1 SE 4 7 2 4 1016.7 1016.7 0.0
02/04:00am 3.4 0.6 3.1 98 0.1 SE 7 9 4 5 1016.7 1016.7 0.0
02/03:43am 3.6 2.2 3.3 98 0.1 CALM 0 0 0 0 1016.8 1016.8 0.0
02/03:30am 3.5 2.0 3.2 98 0.1 CALM 0 0 0 0 1017.0 1017.0 0.0
02/03:26am 3.3 1.8 3.0 98 0.1 CALM 0 0 0 0 1017.0 1017.0 0.0
02/03:20am 3.3 1.8 3.0 98 0.1 CALM 0 0 0 0 1017.1 1017.1 0.0
02/03:08am 3.3 1.8 2.9 97 0.2 CALM 0 0 0 0 1017.2 1017.2 0.0
02/03:00am 3.6 2.1 3.0 96 0.2 CALM 0 0 0 0 1017.1 1017.1 0.0
02/02:58am 3.6 2.1 3.0 96 0.2 CALM 0 0 0 0 1017.2 1017.2 0.0
02/02:48am 3.6 1.7 3.0 96 0.2 WSW 2 6 1 3 1017.1 1017.1 0.0
02/02:46am 3.8 2.0 3.4 97 0.2 WSW 2 6 1 3 1017.1 1017.1 0.0
02/02:30am 4.1 2.4 3.8 98 0.1 NW 2 7 1 4 1017.4 1017.4 0.0
02/02:24am 4.6 3.3 4.3 98 0.1 CALM 0 0 0 0 1017.4 1017.4 0.0
02/02:19am 4.5 3.2 4.2 98 0.1 CALM 0 0 0 0 1017.4 1017.4 0.0
02/02:17am 4.5 3.2 4.2 98 0.1 CALM 0 0 0 0 1017.4 1017.4 0.0
02/02:00am 5.1 3.9 4.8 98 0.1 CALM 0 0 0 0 1017.3 1017.3 0.0
02/01:30am 6.0 4.3 5.7 98 0.1 ESE 4 9 2 5 1016.9 1016.9 0.0
02/01:00am 5.5 4.3 4.8 95 0.3 CALM 0 0 0 0 1017.1 1017.1 0.0
02/12:30am 5.8 4.7 4.9 94 0.4 CALM 0 0 0 0 1017.0 1017.0 0.0
02/12:00am 6.5 5.5 5.6 94 0.4 CALM 0 0 0 0 1016.8 1016.8 0.0
 
Date/Time
EST
Temp
°C
App
Temp
°C
Dew
Point
Rel
Hum
%
Delta-T
°C
Wind Press
QNH
hPa
Press
MSL
hPa
Rain
since 9 am
mm
Dir
 
Spd
km/h
Gust
km/h
Spd
kts
Gust
kts
01/11:30pm 7.0 5.9 5.3 89 0.8 CALM 0 0 0 0 1016.6 1016.6 0.0
01/11:00pm 7.3 6.4 6.1 92 0.5 CALM 0 0 0 0 1016.6 1016.6 0.0
01/10:30pm 7.6 6.7 5.9 89 0.8 CALM 0 9 0 5 1016.5 1016.5 0.0
01/10:00pm 7.7 6.0 5.7 87 0.9 WSW 4 6 2 3 1016.3 1016.3 0.0
01/09:30pm 7.7 5.5 5.5 86 1.0 NW 6 7 3 4 1016.2 1016.2 0.0
01/09:00pm 8.9 7.6 6.2 83 1.2 SW 2 6 1 3 1015.7 1015.7 0.0
01/08:30pm 9.2 7.2 6.1 81 1.4 S 6 9 3 5 1015.5 1015.5 0.0
01/08:00pm 10.7 8.1 6.3 74 2.1 SSW 9 11 5 6 1015.1 1015.1 0.0
01/07:30pm 10.6 8.5 6.0 73 2.1 SSW 6 7 3 4 1014.7 1014.7 0.0
01/07:00pm 12.3 10.0 5.9 65 3.0 SE 7 9 4 5 1014.2 1014.2 0.0
01/06:30pm 12.8 9.7 5.5 61 3.4 SE 11 15 6 8 1013.8 1013.8 0.0
01/06:00pm 15.0 13.7 4.1 48 5.0 CALM 0 0 0 0 1013.3 1013.3 0.0
01/05:30pm 17.6 15.4 3.1 38 6.7 SSE 4 7 2 4 1013.1 1013.1 0.0
01/05:00pm 18.4 15.3 3.8 38 6.9 SE 9 13 5 7 1012.9 1012.9 0.0
01/04:30pm 18.9 15.1 3.9 37 7.1 SE 13 17 7 9 1012.7 1012.7 0.0
01/04:00pm 19.2 15.5 2.6 33 7.7 SE 11 15 6 8 1012.5 1012.5 0.0

Other Formats:

Comma delimited format used in spreadsheet applications
http://www.bom.gov.au/fwo/IDN60801/IDN60801.95753.axf

JavaScript Object Notation format (JSON) in row-major order
http://www.bom.gov.au/fwo/IDN60801/IDN60801.95753.json